createdAt,value
2022-10-23T00:12:08.839Z,94.15
2022-10-23T00:27:10.820Z,94.02
2022-10-23T00:42:21.130Z,94.00
2022-10-23T00:57:23.111Z,93.89
2022-10-23T01:12:52.520Z,94.04
2022-10-23T01:28:02.598Z,93.85
2022-10-23T01:43:12.849Z,94.12
2022-10-23T01:58:16.810Z,94.04
2022-10-23T02:13:24.644Z,93.99
2022-10-23T02:28:31.350Z,93.89
2022-10-23T02:43:39.920Z,94.04
2022-10-23T02:59:07.761Z,94.02
2022-10-23T03:14:11.987Z,94.06
2022-10-23T03:29:13.878Z,93.56
2022-10-23T03:44:15.762Z,93.52
2022-10-23T03:59:18.021Z,93.88
2022-10-23T04:14:19.921Z,94.32
2022-10-23T04:29:24.760Z,94.21
2022-10-23T04:44:26.698Z,94.68
2022-10-23T04:59:28.704Z,94.18
2022-10-23T05:14:30.621Z,94.18
2022-10-23T05:29:32.512Z,94.33
2022-10-23T05:44:34.431Z,94.64
2022-10-23T05:59:36.350Z,94.83
2022-10-23T06:14:38.620Z,94.98
2022-10-23T06:29:41.782Z,94.77
2022-10-23T06:44:43.692Z,94.58
2022-10-23T06:59:45.673Z,94.36
2022-10-23T07:14:47.550Z,94.13
2022-10-23T07:29:52.689Z,93.87
2022-10-23T07:44:54.591Z,93.30
2022-10-23T07:59:56.581Z,93.34
2022-10-23T08:14:58.481Z,93.20
2022-10-23T08:30:00.382Z,92.81
2022-10-23T08:45:08.111Z,92.84
2022-10-23T09:00:16.141Z,92.81
2022-10-23T09:15:35.229Z,92.96
2022-10-23T09:30:42.803Z,93.16
2022-10-23T09:45:55.930Z,93.57
2022-10-23T10:00:58.090Z,93.60
2022-10-23T10:16:09.430Z,93.44
2022-10-23T10:31:33.292Z,93.75
2022-10-23T10:46:45.233Z,93.76
2022-10-23T11:02:02.407Z,93.69
2022-10-23T11:17:10.451Z,93.54
2022-10-23T11:32:45.061Z,93.60
2022-10-23T11:48:01.910Z,93.60
2022-10-23T12:03:04.765Z,93.90
2022-10-23T12:18:16.727Z,93.72
2022-10-23T12:33:24.319Z,93.77
2022-10-23T12:48:26.361Z,93.25
2022-10-23T13:03:30.678Z,93.22
2022-10-23T13:18:41.702Z,93.06
2022-10-23T13:33:46.098Z,92.79
2022-10-23T13:48:48.801Z,92.75
2022-10-23T14:03:52.221Z,92.72
2022-10-23T14:18:54.601Z,92.72
2022-10-23T14:33:59.120Z,92.81
2022-10-23T14:49:02.491Z,92.85
2022-10-23T15:04:05.377Z,92.96
2022-10-23T15:19:17.055Z,92.91
2022-10-23T15:34:23.980Z,93.08
2022-10-23T15:49:30.573Z,93.11
2022-10-23T16:04:33.481Z,93.25
2022-10-23T16:19:35.701Z,93.36
2022-10-23T16:34:37.658Z,93.18
2022-10-23T16:49:39.598Z,93.27
2022-10-23T17:04:43.357Z,93.46
2022-10-23T17:19:46.446Z,93.54
2022-10-23T17:34:48.766Z,93.44
2022-10-23T17:49:50.719Z,93.27
2022-10-23T18:04:52.887Z,93.14
2022-10-23T18:19:58.356Z,93.38
2022-10-23T18:35:03.125Z,93.12
2022-10-23T18:50:05.702Z,93.22
2022-10-23T19:05:08.502Z,93.20
2022-10-23T19:20:15.083Z,93.19
2022-10-23T19:35:20.999Z,92.56
2022-10-23T19:50:23.159Z,93.10
2022-10-23T20:05:25.238Z,93.08
2022-10-23T20:20:27.298Z,93.16
2022-10-23T20:35:29.280Z,93.26
2022-10-23T20:50:31.269Z,93.39
2022-10-23T21:05:34.518Z,93.78
2022-10-23T21:20:36.539Z,94.03
2022-10-23T21:35:43.314Z,93.81
2022-10-23T21:50:58.602Z,93.48
2022-10-23T22:06:00.599Z,93.70
2022-10-23T22:21:08.779Z,93.60
2022-10-23T22:36:11.299Z,93.55
2022-10-23T22:51:15.900Z,93.64
2022-10-23T23:06:19.018Z,93.53
2022-10-23T23:21:21.219Z,93.85
2022-10-23T23:36:26.584Z,93.73
2022-10-23T23:51:28.578Z,93.89
